createdAt,value
2022-08-02T00:01:49.205Z,78.67
2022-08-02T00:06:48.981Z,78.81
2022-08-02T00:11:49.154Z,78.86
2022-08-02T00:16:49.293Z,79.03
2022-08-02T00:21:49.006Z,79.55
2022-08-02T00:26:49.064Z,79.39
2022-08-02T00:31:49.150Z,79.61
2022-08-02T00:36:49.010Z,79.68
2022-08-02T00:41:49.167Z,79.85
2022-08-02T00:46:49.158Z,79.95
2022-08-02T00:51:49.027Z,79.98
2022-08-02T00:56:49.551Z,80.14
2022-08-02T01:01:57.361Z,80.39
2022-08-02T01:06:54.063Z,80.45
2022-08-02T01:11:54.115Z,80.41
2022-08-02T01:16:54.143Z,80.50
2022-08-02T01:21:54.055Z,80.44
2022-08-02T01:26:54.051Z,80.51
2022-08-02T01:31:54.174Z,80.99
2022-08-02T01:36:54.107Z,80.93
2022-08-02T01:41:58.902Z,80.76
2022-08-02T01:46:56.082Z,80.74
2022-08-02T01:52:14.458Z,80.79
2022-08-02T01:57:14.167Z,80.96
2022-08-02T02:02:14.529Z,81.12
2022-08-02T02:07:15.316Z,81.30
2022-08-02T02:12:18.406Z,81.18
2022-08-02T02:18:10.705Z,81.14
2022-08-02T02:22:20.280Z,81.03
2022-08-02T02:27:23.970Z,81.10
2022-08-02T02:32:24.192Z,81.55
2022-08-02T02:37:24.277Z,81.73
2022-08-02T02:42:24.122Z,82.14
2022-08-02T02:47:40.433Z,82.33
2022-08-02T02:52:26.125Z,82.42
2022-08-02T02:57:26.166Z,82.44
2022-08-02T03:02:26.250Z,82.30
2022-08-02T03:07:26.401Z,82.50
2022-08-02T03:12:31.267Z,82.52
2022-08-02T03:17:29.158Z,82.42
2022-08-02T03:22:29.186Z,82.76
2022-08-02T03:27:29.245Z,82.90
2022-08-02T03:32:29.252Z,82.87
2022-08-02T03:37:29.238Z,82.86
2022-08-02T03:42:29.257Z,83.05
2022-08-02T03:47:29.161Z,82.99
2022-08-02T03:52:29.218Z,83.10
2022-08-02T03:57:29.255Z,83.07
2022-08-02T04:02:29.223Z,83.10
2022-08-02T04:08:32.902Z,83.07
2022-08-02T04:12:31.196Z,83.10
2022-08-02T04:17:31.230Z,82.94
2022-08-02T04:22:31.148Z,82.87
2022-08-02T04:28:15.461Z,82.79
2022-08-02T04:32:33.227Z,82.60
2022-08-02T04:37:33.223Z,82.48
2022-08-02T04:42:33.267Z,82.38
2022-08-02T04:48:02.474Z,82.32
2022-08-02T04:52:35.296Z,82.08
2022-08-02T04:57:53.500Z,81.83
2022-08-02T05:02:53.648Z,81.71
2022-08-02T05:07:53.187Z,81.51
2022-08-02T05:12:53.239Z,81.22
2022-08-02T05:17:53.276Z,80.60
2022-08-02T05:22:53.354Z,80.04
2022-08-02T05:27:53.199Z,79.51
2022-08-02T05:32:53.270Z,79.15
2022-08-02T05:37:53.252Z,78.72
2022-08-02T05:42:53.240Z,77.97
2022-08-02T05:47:53.226Z,77.44
2022-08-02T05:52:53.306Z,76.68
2022-08-02T05:57:53.494Z,76.00
2022-08-02T06:02:53.285Z,75.47
2022-08-02T06:07:53.321Z,74.39
2022-08-02T06:12:53.308Z,73.02
2022-08-02T06:17:53.264Z,72.39
2022-08-02T06:22:53.252Z,69.66
2022-08-02T06:27:53.365Z,67.39
2022-08-02T06:32:53.303Z,63.85
2022-08-02T06:37:56.999Z,58.84
2022-08-02T06:42:55.443Z,54.89
2022-08-02T06:47:55.360Z,52.90
2022-08-02T06:52:55.395Z,48.46
2022-08-02T06:57:55.298Z,46.45
2022-08-02T07:02:55.361Z,45.46
2022-08-02T07:07:55.447Z,43.03
2022-08-02T07:12:59.653Z,39.46
2022-08-02T07:17:57.427Z,37.30
2022-08-02T07:22:57.326Z,35.39
2022-08-02T07:27:57.452Z,33.77
2022-08-02T07:32:58.346Z,30.61
2022-08-02T07:38:02.038Z,29.28
2022-08-02T07:43:03.748Z,28.00
2022-08-02T07:48:02.546Z,27.29
2022-08-02T07:53:02.541Z,26.45
2022-08-02T07:58:02.406Z,26.48
2022-08-02T08:03:02.531Z,24.26
2022-08-02T08:08:02.552Z,24.57
2022-08-02T08:13:02.497Z,25.10
2022-08-02T08:18:02.413Z,23.98
2022-08-02T08:23:02.399Z,23.17
2022-08-02T08:28:02.416Z,22.03
2022-08-02T08:33:04.010Z,20.85
2022-08-02T08:38:07.638Z,19.93
2022-08-02T08:43:07.436Z,18.97
2022-08-02T08:48:07.391Z,18.79
2022-08-02T08:53:07.612Z,18.99
2022-08-02T08:58:07.473Z,18.72
2022-08-02T09:03:08.099Z,17.82
2022-08-02T09:08:11.273Z,17.97
2022-08-02T09:13:37.925Z,18.52
2022-08-02T09:18:12.521Z,18.99
2022-08-02T09:23:12.439Z,17.79
2022-08-02T09:28:12.573Z,17.58
2022-08-02T09:33:12.654Z,16.98
2022-08-02T09:38:12.590Z,16.95
2022-08-02T09:43:12.578Z,16.67
2022-08-02T09:48:12.542Z,17.72
2022-08-02T09:53:12.908Z,17.40
2022-08-02T09:58:12.566Z,18.08
2022-08-02T10:03:21.440Z,18.61
2022-08-02T10:08:14.509Z,18.62
2022-08-02T10:13:14.535Z,21.36
2022-08-02T10:18:37.133Z,22.53
2022-08-02T10:23:18.607Z,22.94
2022-08-02T10:28:18.525Z,24.46
2022-08-02T10:33:19.599Z,26.54
2022-08-02T10:38:19.565Z,26.64
2022-08-02T10:43:19.558Z,28.42
2022-08-02T10:48:22.050Z,30.06
2022-08-02T10:53:21.599Z,30.18
2022-08-02T10:58:26.100Z,30.28
2022-08-02T11:03:26.549Z,30.34
2022-08-02T11:08:26.649Z,30.35
2022-08-02T11:13:29.549Z,31.37
2022-08-02T11:18:29.705Z,31.83
2022-08-02T11:23:44.754Z,32.40
2022-08-02T11:28:32.028Z,32.98
2022-08-02T11:33:31.988Z,33.38
2022-08-02T11:38:34.607Z,33.47
2022-08-02T11:43:35.143Z,33.21
2022-08-02T11:48:34.665Z,33.07
2022-08-02T11:53:34.636Z,33.27
2022-08-02T11:58:34.611Z,34.32
2022-08-02T12:03:34.743Z,34.97
2022-08-02T12:08:34.720Z,35.67
2022-08-02T12:13:34.638Z,36.18
2022-08-02T12:18:52.844Z,36.38
2022-08-02T12:23:59.981Z,36.33
2022-08-02T12:28:54.778Z,36.43
2022-08-02T12:33:56.717Z,36.22
2022-08-02T12:38:56.648Z,36.64
2022-08-02T12:43:59.785Z,37.22
2022-08-02T12:49:17.270Z,37.12
2022-08-02T12:54:01.609Z,37.59
2022-08-02T12:59:01.647Z,37.83
2022-08-02T13:04:10.372Z,38.28
2022-08-02T13:09:03.692Z,38.50
2022-08-02T13:14:03.630Z,38.79
2022-08-02T13:19:03.640Z,38.47
2022-08-02T13:24:03.695Z,38.25
2022-08-02T13:29:03.812Z,38.24
2022-08-02T13:34:03.783Z,38.75
2022-08-02T13:39:04.345Z,38.83
2022-08-02T13:44:09.822Z,39.07
2022-08-02T13:49:06.839Z,39.30
2022-08-02T13:54:06.775Z,40.05
2022-08-02T13:59:55.321Z,40.58
2022-08-02T14:04:09.617Z,40.47
2022-08-02T14:09:09.870Z,40.01
2022-08-02T14:14:15.869Z,40.21
2022-08-02T14:19:16.039Z,40.03
2022-08-02T14:24:15.941Z,39.79
2022-08-02T14:29:15.806Z,39.86
2022-08-02T14:34:15.785Z,40.24
2022-08-02T14:39:15.755Z,40.55
2022-08-02T14:44:15.704Z,40.87
2022-08-02T14:49:24.499Z,41.20
2022-08-02T14:54:18.355Z,41.15
2022-08-02T14:59:18.812Z,41.23
2022-08-02T15:04:18.858Z,41.01
2022-08-02T15:09:18.828Z,41.34
2022-08-02T15:14:25.378Z,40.88
2022-08-02T15:19:21.034Z,40.46
2022-08-02T15:24:20.833Z,40.48
2022-08-02T15:29:20.943Z,40.67
2022-08-02T15:34:20.821Z,40.79
2022-08-02T15:39:23.816Z,41.04
2022-08-02T15:44:24.469Z,41.09
2022-08-02T15:49:24.884Z,41.19
2022-08-02T15:54:24.809Z,41.38
2022-08-02T15:59:24.895Z,41.42
2022-08-02T16:04:24.776Z,41.30
2022-08-02T16:09:24.877Z,41.53
2022-08-02T16:14:24.796Z,41.55
2022-08-02T16:19:45.697Z,41.87
2022-08-02T16:24:26.835Z,41.93
2022-08-02T16:29:26.824Z,42.18
2022-08-02T16:34:40.289Z,42.25
2022-08-02T16:39:30.875Z,42.29
2022-08-02T16:44:32.767Z,42.35
2022-08-02T16:50:07.507Z,42.41
2022-08-02T16:54:34.902Z,42.56
2022-08-02T16:59:42.906Z,42.58
2022-08-02T17:04:37.936Z,42.69
2022-08-02T17:10:02.565Z,42.84
2022-08-02T17:14:54.592Z,43.12
2022-08-02T17:19:41.946Z,43.21
2022-08-02T17:24:42.234Z,43.66
2022-08-02T17:29:42.886Z,45.06
2022-08-02T17:39:51.652Z,46.27
2022-08-02T17:44:49.264Z,46.84
2022-08-02T17:49:50.027Z,46.84
2022-08-02T17:54:51.918Z,47.09
2022-08-02T18:00:04.450Z,46.76
2022-08-02T18:04:53.940Z,46.65
2022-08-02T18:09:53.949Z,46.74
2022-08-02T18:14:57.027Z,46.77
2022-08-02T18:20:04.505Z,46.73
2022-08-02T18:24:58.902Z,46.88
2022-08-02T18:30:00.091Z,46.97
2022-08-02T18:35:01.227Z,47.14
2022-08-02T18:40:01.098Z,47.48
2022-08-02T18:45:01.910Z,47.62
2022-08-02T18:50:03.978Z,47.76
2022-08-02T18:55:08.707Z,47.83
2022-08-02T19:00:06.355Z,48.14
2022-08-02T19:05:06.840Z,48.25
2022-08-02T19:10:06.954Z,48.46
2022-08-02T19:15:10.881Z,48.65
2022-08-02T19:20:19.535Z,48.88
2022-08-02T19:25:16.886Z,49.06
2022-08-02T19:30:16.983Z,49.30
2022-08-02T19:35:29.418Z,49.63
2022-08-02T19:40:20.567Z,50.54
2022-08-02T19:45:48.401Z,51.30
2022-08-02T19:50:25.755Z,52.48
2022-08-02T19:56:01.546Z,53.26
2022-08-02T20:00:27.416Z,54.34
2022-08-02T20:05:27.347Z,54.52
2022-08-02T20:10:27.162Z,55.69
2022-08-02T20:15:56.115Z,56.10
2022-08-02T20:20:32.175Z,56.25
2022-08-02T20:25:32.059Z,56.71
2022-08-02T20:30:34.199Z,57.04
2022-08-02T20:35:35.154Z,57.60
2022-08-02T20:40:36.096Z,57.84
2022-08-02T20:45:36.141Z,58.74
2022-08-02T20:50:49.384Z,59.49
2022-08-02T20:55:50.130Z,59.57
2022-08-02T21:00:51.986Z,59.60
2022-08-02T21:05:55.141Z,60.32
2022-08-02T21:10:55.549Z,61.08
2022-08-02T21:20:58.102Z,61.45
2022-08-02T21:25:58.528Z,62.23
2022-08-02T21:30:58.167Z,62.74
2022-08-02T21:35:58.098Z,63.05
2022-08-02T21:40:58.136Z,63.26
2022-08-02T21:45:58.174Z,63.49
2022-08-02T21:50:58.104Z,63.48
2022-08-02T21:56:00.781Z,63.82
2022-08-02T22:01:00.119Z,64.03
2022-08-02T22:06:00.153Z,64.36
2022-08-02T22:11:03.567Z,64.41
2022-08-02T22:16:04.900Z,64.56
2022-08-02T22:21:14.266Z,65.13
2022-08-02T22:26:08.182Z,65.76
2022-08-02T22:31:10.253Z,66.07
2022-08-02T22:36:12.152Z,66.56
2022-08-02T22:41:12.349Z,66.58
2022-08-02T22:46:15.249Z,66.90
2022-08-02T22:51:15.231Z,67.29
2022-08-02T22:56:15.471Z,67.75
2022-08-02T22:58:49.136Z,45.71
2022-08-02T22:59:02.308Z,61.37
2022-08-02T23:01:15.236Z,67.91
2022-08-02T23:06:17.023Z,68.29
2022-08-02T23:11:17.216Z,68.48
2022-08-02T23:17:03.437Z,69.04
2022-08-02T23:22:03.423Z,68.82
2022-08-02T23:27:03.193Z,68.76
2022-08-02T23:32:03.021Z,68.93
2022-08-02T23:37:03.626Z,69.09
2022-08-02T23:42:03.958Z,69.07
2022-08-02T23:47:04.101Z,69.02
2022-08-02T23:52:03.995Z,68.93
2022-08-02T23:57:19.717Z,68.85
